Balmorhea, Texas
Current Conditions -  °F | °C
As of 11:35 PM on Tuesday 21 Oct 2014 (Local Time) from KPEQ Reporting Station
Overcast Overcast  
Wind Chill: 64°   Ceiling: 6500
Heat Index: 64°   Visibility: 10mi
Dew Point: 60°   Wind: 7mph
Humidity: 89%   Direction: 100°E
Pressure: 30.05"   Gusts: NA
Location:  30.98°N, 103.74°W
Report Text: KPEQ 220435Z AUTO 10006KT 10SM SCT055 OVC065 18/16 A3005 RMK AO2 T01750157
Loading
Personal Weather Stations






























Interactive Weather Map
Tropical Storm Tracking
New forecast layout! Learn more

10-Day Weather Forecast

Advertisements
Track Severe Weather on mobile